sensor_id;sensor_type;location;lat;lon;timestamp;pressure;altitude;pressure_sealevel;temperature;humidity
56330;BME280;42236;48.058;10.632;2023-07-29T00:02:32;94486.81;;;16.51;100.00
56330;BME280;42236;48.058;10.632;2023-07-29T00:09:07;94487.53;;;16.41;100.00
56330;BME280;42236;48.058;10.632;2023-07-29T00:11:53;94497.63;;;16.37;100.00
56330;BME280;42236;48.058;10.632;2023-07-29T00:14:39;94482.84;;;16.34;100.00
56330;BME280;42236;48.058;10.632;2023-07-29T00:17:25;94482.81;;;16.31;100.00
56330;BME280;42236;48.058;10.632;2023-07-29T00:20:10;94482.03;;;16.27;100.00
56330;BME280;42236;48.058;10.632;2023-07-29T00:27:00;94471.09;;;16.19;100.00
56330;BME280;42236;48.058;10.632;2023-07-29T00:30:06;94462.88;;;16.16;100.00
56330;BME280;42236;48.058;10.632;2023-07-29T00:33:00;94460.16;;;16.16;100.00
56330;BME280;42236;48.058;10.632;2023-07-29T00:39:40;94458.59;;;16.11;100.00
56330;BME280;42236;48.058;10.632;2023-07-29T00:42:25;94453.91;;;16.08;100.00
56330;BME280;42236;48.058;10.632;2023-07-29T00:48:53;94451.16;;;16.01;100.00
56330;BME280;42236;48.058;10.632;2023-07-29T00:51:54;94440.66;;;15.99;100.00
56330;BME280;42236;48.058;10.632;2023-07-29T00:54:43;94433.63;;;15.95;100.00
56330;BME280;42236;48.058;10.632;2023-07-29T00:57:44;94434.38;;;15.92;100.00
56330;BME280;42236;48.058;10.632;2023-07-29T01:00:50;94437.50;;;15.90;100.00
56330;BME280;42236;48.058;10.632;2023-07-29T01:03:36;94439.81;;;15.92;100.00
56330;BME280;42236;48.058;10.632;2023-07-29T01:06:45;94436.31;;;15.91;100.00
56330;BME280;42236;48.058;10.632;2023-07-29T01:16:15;94436.63;;;15.79;100.00
56330;BME280;42236;48.058;10.632;2023-07-29T01:29:44;94441.13;;;15.61;100.00
56330;BME280;42236;48.058;10.632;2023-07-29T01:36:37;94439.56;;;15.60;100.00
56330;BME280;42236;48.058;10.632;2023-07-29T01:46:33;94427.88;;;15.52;100.00
56330;BME280;42236;48.058;10.632;2023-07-29T01:49:22;94432.53;;;15.51;100.00
56330;BME280;42236;48.058;10.632;2023-07-29T01:52:38;94436.78;;;15.49;100.00
56330;BME280;42236;48.058;10.632;2023-07-29T01:55:27;94427.03;;;15.44;100.00
56330;BME280;42236;48.058;10.632;2023-07-29T01:58:13;94418.44;;;15.39;100.00
56330;BME280;42236;48.058;10.632;2023-07-29T02:00:59;94408.31;;;15.35;100.00
56330;BME280;42236;48.058;10.632;2023-07-29T02:03:45;94411.06;;;15.39;100.00
56330;BME280;42236;48.058;10.632;2023-07-29T02:06:31;94415.34;;;15.40;100.00
56330;BME280;42236;48.058;10.632;2023-07-29T02:09:20;94426.63;;;15.46;100.00
56330;BME280;42236;48.058;10.632;2023-07-29T02:12:06;94428.22;;;15.47;100.00
56330;BME280;42236;48.058;10.632;2023-07-29T02:14:53;94422.38;;;15.45;100.00
56330;BME280;42236;48.058;10.632;2023-07-29T02:21:21;94431.72;;;15.47;100.00
56330;BME280;42236;48.058;10.632;2023-07-29T02:24:10;94433.25;;;15.48;100.00
56330;BME280;42236;48.058;10.632;2023-07-29T02:30:07;94420.78;;;15.44;100.00
56330;BME280;42236;48.058;10.632;2023-07-29T02:33:01;94420.78;;;15.44;100.00
56330;BME280;42236;48.058;10.632;2023-07-29T02:36:05;94416.91;;;15.41;100.00
56330;BME280;42236;48.058;10.632;2023-07-29T02:38:50;94426.22;;;15.44;100.00
56330;BME280;42236;48.058;10.632;2023-07-29T02:41:36;94423.50;;;15.44;100.00
56330;BME280;42236;48.058;10.632;2023-07-29T02:48:20;94421.56;;;15.41;100.00
56330;BME280;42236;48.058;10.632;2023-07-29T02:51:08;94422.31;;;15.41;100.00
56330;BME280;42236;48.058;10.632;2023-07-29T02:53:54;94416.91;;;15.41;100.00
56330;BME280;42236;48.058;10.632;2023-07-29T02:56:50;94410.31;;;15.42;100.00
56330;BME280;42236;48.058;10.632;2023-07-29T02:59:54;94405.28;;;15.48;100.00
56330;BME280;42236;48.058;10.632;2023-07-29T03:02:40;94405.34;;;15.51;100.00
56330;BME280;42236;48.058;10.632;2023-07-29T03:05:52;94393.72;;;15.58;100.00
56330;BME280;42236;48.058;10.632;2023-07-29T03:08:35;94386.72;;;15.61;100.00
56330;BME280;42236;48.058;10.632;2023-07-29T03:11:21;94396.88;;;15.67;100.00
56330;BME280;42236;48.058;10.632;2023-07-29T03:14:41;94390.72;;;15.70;100.00
56330;BME280;42236;48.058;10.632;2023-07-29T03:17:27;94385.28;;;15.70;100.00
56330;BME280;42236;48.058;10.632;2023-07-29T03:20:19;94392.28;;;15.71;100.00
56330;BME280;42236;48.058;10.632;2023-07-29T03:23:05;94376.72;;;15.68;100.00
56330;BME280;42236;48.058;10.632;2023-07-29T03:26:16;94376.31;;;15.66;100.00
56330;BME280;42236;48.058;10.632;2023-07-29T03:29:02;94374.31;;;15.63;100.00
56330;BME280;42236;48.058;10.632;2023-07-29T03:31:48;94370.41;;;15.61;100.00
56330;BME280;42236;48.058;10.632;2023-07-29T03:34:33;94369.66;;;15.60;100.00
56330;BME280;42236;48.058;10.632;2023-07-29T03:37:25;94368.88;;;15.60;100.00
56330;BME280;42236;48.058;10.632;2023-07-29T03:40:30;94369.66;;;15.60;100.00
56330;BME280;42236;48.058;10.632;2023-07-29T03:43:22;94376.25;;;15.59;100.00
56330;BME280;42236;48.058;10.632;2023-07-29T03:46:28;94375.84;;;15.61;100.00
56330;BME280;42236;48.058;10.632;2023-07-29T03:49:13;94377.41;;;15.58;100.00
56330;BME280;42236;48.058;10.632;2023-07-29T03:51:59;94374.31;;;15.56;100.00
56330;BME280;42236;48.058;10.632;2023-07-29T03:54:47;94384.38;;;15.55;100.00
56330;BME280;42236;48.058;10.632;2023-07-29T04:01:12;94389.81;;;15.55;100.00
56330;BME280;42236;48.058;10.632;2023-07-29T04:07:34;94377.84;;;15.64;100.00
56330;BME280;42236;48.058;10.632;2023-07-29T04:10:19;94377.06;;;15.67;100.00
56330;BME280;42236;48.058;10.632;2023-07-29T04:16:39;94369.84;;;15.89;100.00
56330;BME280;42236;48.058;10.632;2023-07-29T04:19:25;94369.91;;;15.99;100.00
56330;BME280;42236;48.058;10.632;2023-07-29T04:22:20;94371.50;;;16.11;100.00
56330;BME280;42236;48.058;10.632;2023-07-29T04:25:06;94368.84;;;16.22;100.00
56330;BME280;42236;48.058;10.632;2023-07-29T04:28:11;94373.16;;;16.34;100.00
56330;BME280;42236;48.058;10.632;2023-07-29T04:30:57;94366.97;;;16.44;100.00
56330;BME280;42236;48.058;10.632;2023-07-29T04:33:43;94367.38;;;16.57;100.00
56330;BME280;42236;48.058;10.632;2023-07-29T04:36:49;94380.66;;;16.66;100.00
56330;BME280;42236;48.058;10.632;2023-07-29T04:39:34;94366.25;;;16.76;100.00
56330;BME280;42236;48.058;10.632;2023-07-29T04:42:24;94360.88;;;16.90;100.00
56330;BME280;42236;48.058;10.632;2023-07-29T04:45:30;94384.25;;;17.02;100.00
56330;BME280;42236;48.058;10.632;2023-07-29T04:48:16;94409.94;;;17.04;100.00
56330;BME280;42236;48.058;10.632;2023-07-29T04:55:16;94359.63;;;16.59;100.00
56330;BME280;42236;48.058;10.632;2023-07-29T04:58:02;94357.59;;;16.38;100.00
56330;BME280;42236;48.058;10.632;2023-07-29T05:00:47;94354.09;;;16.34;100.00
56330;BME280;42236;48.058;10.632;2023-07-29T05:03:33;94353.72;;;16.35;100.00
56330;BME280;42236;48.058;10.632;2023-07-29T05:06:19;94363.06;;;16.41;100.00
56330;BME280;42236;48.058;10.632;2023-07-29T05:09:18;94358.44;;;16.46;100.00
56330;BME280;42236;48.058;10.632;2023-07-29T05:12:05;94368.50;;;16.45;100.00
56330;BME280;42236;48.058;10.632;2023-07-29T05:14:51;94359.97;;;16.43;100.00
56330;BME280;42236;48.058;10.632;2023-07-29T05:20:42;94356.91;;;16.55;100.00
56330;BME280;42236;48.058;10.632;2023-07-29T05:23:28;94365.09;;;16.62;100.00
56330;BME280;42236;48.058;10.632;2023-07-29T05:26:14;94377.53;;;16.71;100.00
56330;BME280;42236;48.058;10.632;2023-07-29T05:29:00;94393.56;;;16.79;100.00
56330;BME280;42236;48.058;10.632;2023-07-29T05:31:46;94391.22;;;16.85;100.00
56330;BME280;42236;48.058;10.632;2023-07-29T05:34:34;94385.00;;;16.95;100.00
56330;BME280;42236;48.058;10.632;2023-07-29T05:37:20;94392.03;;;17.03;100.00
56330;BME280;42236;48.058;10.632;2023-07-29T05:40:09;94395.94;;;17.10;100.00
56330;BME280;42236;48.058;10.632;2023-07-29T05:42:55;94396.69;;;17.10;100.00
56330;BME280;42236;48.058;10.632;2023-07-29T05:45:41;94397.88;;;17.05;100.00
56330;BME280;42236;48.058;10.632;2023-07-29T05:48:43;94420.81;;;17.01;100.00
56330;BME280;42236;48.058;10.632;2023-07-29T05:51:29;94445.34;;;16.97;100.00
56330;BME280;42236;48.058;10.632;2023-07-29T05:54:14;94451.19;;;16.92;100.00
56330;BME280;42236;48.058;10.632;2023-07-29T05:57:00;94459.72;;;16.83;100.00
56330;BME280;42236;48.058;10.632;2023-07-29T05:59:46;94454.22;;;16.76;100.00
56330;BME280;42236;48.058;10.632;2023-07-29T06:02:32;94474.47;;;16.75;100.00
56330;BME280;42236;48.058;10.632;2023-07-29T06:05:23;94486.13;;;16.72;100.00
56330;BME280;42236;48.058;10.632;2023-07-29T06:08:15;94469.78;;;16.72;100.00
56330;BME280;42236;48.058;10.632;2023-07-29T06:11:30;94462.75;;;16.68;100.00
56330;BME280;42236;48.058;10.632;2023-07-29T06:14:16;94461.19;;;16.67;100.00
56330;BME280;42236;48.058;10.632;2023-07-29T06:17:02;94437.44;;;16.63;100.00
56330;BME280;42236;48.058;10.632;2023-07-29T06:19:48;94454.19;;;16.66;100.00
56330;BME280;42236;48.058;10.632;2023-07-29T06:22:34;94430.81;;;16.64;100.00
56330;BME280;42236;48.058;10.632;2023-07-29T06:25:19;94425.00;;;16.62;100.00
56330;BME280;42236;48.058;10.632;2023-07-29T06:28:05;94437.44;;;16.67;100.00
56330;BME280;42236;48.058;10.632;2023-07-29T06:30:51;94432.44;;;16.73;100.00
56330;BME280;42236;48.058;10.632;2023-07-29T06:33:37;94424.25;;;16.76;100.00
56330;BME280;42236;48.058;10.632;2023-07-29T06:36:22;94411.06;;;16.82;100.00
56330;BME280;42236;48.058;10.632;2023-07-29T06:39:08;94402.13;;;16.89;100.00
56330;BME280;42236;48.058;10.632;2023-07-29T06:41:54;94394.38;;;16.94;100.00
56330;BME280;42236;48.058;10.632;2023-07-29T06:44:47;94395.16;;;17.02;100.00
56330;BME280;42236;48.058;10.632;2023-07-29T06:47:39;94395.16;;;17.13;100.00
56330;BME280;42236;48.058;10.632;2023-07-29T06:50:24;94397.50;;;17.25;100.00
56330;BME280;42236;48.058;10.632;2023-07-29T06:53:10;94402.94;;;17.39;100.00
56330;BME280;42236;48.058;10.632;2023-07-29T06:55:56;94398.28;;;17.54;100.00
56330;BME280;42236;48.058;10.632;2023-07-29T07:02:23;94407.59;;;17.78;100.00
56330;BME280;42236;48.058;10.632;2023-07-29T07:05:09;94413.06;;;17.92;100.00
56330;BME280;42236;48.058;10.632;2023-07-29T07:08:11;94406.03;;;18.06;100.00
56330;BME280;42236;48.058;10.632;2023-07-29T07:10:56;94407.13;;;18.26;100.00
56330;BME280;42236;48.058;10.632;2023-07-29T07:13:48;94405.16;;;18.41;100.00
56330;BME280;42236;48.058;10.632;2023-07-29T07:16:52;94416.00;;;18.59;100.00
56330;BME280;42236;48.058;10.632;2023-07-29T07:19:48;94410.44;;;18.77;100.00
56330;BME280;42236;48.058;10.632;2023-07-29T07:22:45;94406.09;;;18.87;100.00
56330;BME280;42236;48.058;10.632;2023-07-29T07:25:34;94403.72;;;18.96;100.00
56330;BME280;42236;48.058;10.632;2023-07-29T07:28:23;94405.25;;;19.04;100.00
56330;BME280;42236;48.058;10.632;2023-07-29T07:31:11;94416.09;;;19.18;100.00
56330;BME280;42236;48.058;10.632;2023-07-29T07:37:48;94415.47;;;19.49;100.00
56330;BME280;42236;48.058;10.632;2023-07-29T07:40:34;94422.78;;;19.63;100.00
56330;BME280;42236;48.058;10.632;2023-07-29T07:43:19;94410.19;;;19.76;100.00
56330;BME280;42236;48.058;10.632;2023-07-29T07:46:05;94422.22;;;19.86;100.00
56330;BME280;42236;48.058;10.632;2023-07-29T07:48:51;94414.69;;;19.97;100.00
56330;BME280;42236;48.058;10.632;2023-07-29T07:51:46;94411.81;;;20.08;100.00
56330;BME280;42236;48.058;10.632;2023-07-29T07:54:32;94404.66;;;20.21;100.00
56330;BME280;42236;48.058;10.632;2023-07-29T07:57:18;94390.91;;;20.24;100.00
56330;BME280;42236;48.058;10.632;2023-07-29T08:00:04;94399.47;;;20.30;100.00
56330;BME280;42236;48.058;10.632;2023-07-29T08:02:53;94399.78;;;20.39;99.89
56330;BME280;42236;48.058;10.632;2023-07-29T08:05:42;94390.94;;;20.59;100.00
56330;BME280;42236;48.058;10.632;2023-07-29T08:08:28;94399.34;;;20.75;98.49
56330;BME280;42236;48.058;10.632;2023-07-29T08:11:14;94402.31;;;20.88;97.90
56330;BME280;42236;48.058;10.632;2023-07-29T08:14:03;94412.09;;;20.89;96.81
56330;BME280;42236;48.058;10.632;2023-07-29T08:16:49;94407.75;;;20.92;96.67
56330;BME280;42236;48.058;10.632;2023-07-29T08:19:34;94405.72;;;20.96;96.54
56330;BME280;42236;48.058;10.632;2023-07-29T08:22:20;94410.75;;;21.01;95.75
56330;BME280;42236;48.058;10.632;2023-07-29T08:25:06;94398.16;;;21.07;95.50
56330;BME280;42236;48.058;10.632;2023-07-29T08:31:20;94411.22;;;21.23;94.90
56330;BME280;42236;48.058;10.632;2023-07-29T08:34:05;94398.16;;;21.30;94.54
56330;BME280;42236;48.058;10.632;2023-07-29T08:36:51;94400.78;;;21.41;94.23
56330;BME280;42236;48.058;10.632;2023-07-29T08:47:06;94409.81;;;21.65;91.12
56330;BME280;42236;48.058;10.632;2023-07-29T08:49:52;94405.72;;;21.77;89.91
56330;BME280;42236;48.058;10.632;2023-07-29T08:52:41;94409.09;;;21.85;89.74
56330;BME280;42236;48.058;10.632;2023-07-29T08:55:29;94413.56;;;21.99;88.20
56330;BME280;42236;48.058;10.632;2023-07-29T08:58:15;94414.50;;;22.12;87.85
56330;BME280;42236;48.058;10.632;2023-07-29T09:01:14;94407.28;;;22.22;85.27
56330;BME280;42236;48.058;10.632;2023-07-29T09:04:01;94409.28;;;22.41;86.32
56330;BME280;42236;48.058;10.632;2023-07-29T09:06:50;94409.72;;;22.60;85.43
56330;BME280;42236;48.058;10.632;2023-07-29T09:09:36;94402.00;;;22.71;85.31
56330;BME280;42236;48.058;10.632;2023-07-29T09:12:25;94402.72;;;22.75;84.15
56330;BME280;42236;48.058;10.632;2023-07-29T09:15:13;94403.22;;;22.70;83.28
56330;BME280;42236;48.058;10.632;2023-07-29T09:18:14;94391.00;;;22.71;82.91
56330;BME280;42236;48.058;10.632;2023-07-29T09:21:28;94387.41;;;22.74;76.96
56330;BME280;42236;48.058;10.632;2023-07-29T09:24:16;94396.97;;;22.86;82.37
56330;BME280;42236;48.058;10.632;2023-07-29T09:27:06;94386.97;;;22.95;80.06
56330;BME280;42236;48.058;10.632;2023-07-29T09:29:55;94390.63;;;23.09;79.98
56330;BME280;42236;48.058;10.632;2023-07-29T09:32:59;94389.59;;;23.19;79.37
56330;BME280;42236;48.058;10.632;2023-07-29T09:35:48;94394.06;;;23.29;78.97
56330;BME280;42236;48.058;10.632;2023-07-29T09:38:34;94400.88;;;23.41;78.97
56330;BME280;42236;48.058;10.632;2023-07-29T09:41:25;94399.75;;;23.38;74.64
56330;BME280;42236;48.058;10.632;2023-07-29T09:44:12;94397.72;;;23.42;77.50
56330;BME280;42236;48.058;10.632;2023-07-29T09:46:58;94391.16;;;23.53;78.12
56330;BME280;42236;48.058;10.632;2023-07-29T09:49:44;94391.00;;;23.60;76.95
56330;BME280;42236;48.058;10.632;2023-07-29T09:52:30;94388.69;;;23.58;75.97
56330;BME280;42236;48.058;10.632;2023-07-29T09:55:21;94383.78;;;23.66;75.03
56330;BME280;42236;48.058;10.632;2023-07-29T09:58:07;94388.28;;;23.76;76.07
56330;BME280;42236;48.058;10.632;2023-07-29T10:00:55;94395.59;;;23.83;75.37
56330;BME280;42236;48.058;10.632;2023-07-29T10:03:48;94391.09;;;23.89;71.51
56330;BME280;42236;48.058;10.632;2023-07-29T10:06:45;94390.66;;;23.91;71.98
56330;BME280;42236;48.058;10.632;2023-07-29T10:09:33;94385.69;;;23.85;72.39
56330;BME280;42236;48.058;10.632;2023-07-29T10:12:19;94370.63;;;23.90;72.60
56330;BME280;42236;48.058;10.632;2023-07-29T10:15:06;94375.41;;;24.02;72.57
56330;BME280;42236;48.058;10.632;2023-07-29T10:17:55;94380.66;;;23.97;68.98
56330;BME280;42236;48.058;10.632;2023-07-29T10:20:43;94395.13;;;24.01;71.21
56330;BME280;42236;48.058;10.632;2023-07-29T10:23:35;94388.91;;;24.13;69.98
56330;BME280;42236;48.058;10.632;2023-07-29T10:26:23;94383.09;;;24.24;70.95
56330;BME280;42236;48.058;10.632;2023-07-29T10:29:12;94381.81;;;24.28;69.82
56330;BME280;42236;48.058;10.632;2023-07-29T10:32:01;94387.78;;;24.40;69.19
56330;BME280;42236;48.058;10.632;2023-07-29T10:34:48;94375.00;;;24.62;70.50
56330;BME280;42236;48.058;10.632;2023-07-29T10:37:37;94374.56;;;24.77;69.80
56330;BME280;42236;48.058;10.632;2023-07-29T10:40:26;94372.25;;;24.75;69.83
56330;BME280;42236;48.058;10.632;2023-07-29T10:43:45;94370.47;;;24.81;68.26
56330;BME280;42236;48.058;10.632;2023-07-29T10:46:59;94379.66;;;24.91;67.97
56330;BME280;42236;48.058;10.632;2023-07-29T10:49:57;94380.41;;;24.79;67.51
56330;BME280;42236;48.058;10.632;2023-07-29T10:52:43;94376.34;;;24.83;66.87
56330;BME280;42236;48.058;10.632;2023-07-29T10:55:33;94384.19;;;24.85;65.65
56330;BME280;42236;48.058;10.632;2023-07-29T10:58:19;94387.03;;;24.81;66.63
56330;BME280;42236;48.058;10.632;2023-07-29T11:16:04;94383.97;;;25.05;61.54
56330;BME280;42236;48.058;10.632;2023-07-29T11:22:57;94362.03;;;25.52;61.14
56330;BME280;42236;48.058;10.632;2023-07-29T11:25:43;94371.47;;;25.77;61.53
56330;BME280;42236;48.058;10.632;2023-07-29T11:32:19;94354.47;;;26.13;58.67
56330;BME280;42236;48.058;10.632;2023-07-29T11:39:31;94334.94;;;26.08;57.41
56330;BME280;42236;48.058;10.632;2023-07-29T11:46:04;94333.94;;;25.67;57.37
56330;BME280;42236;48.058;10.632;2023-07-29T11:57:08;94333.66;;;26.22;58.63
56330;BME280;42236;48.058;10.632;2023-07-29T12:10:22;94318.22;;;26.77;55.63
56330;BME280;42236;48.058;10.632;2023-07-29T12:13:42;94322.88;;;26.90;54.07
56330;BME280;42236;48.058;10.632;2023-07-29T12:16:41;94323.00;;;26.86;55.08
56330;BME280;42236;48.058;10.632;2023-07-29T12:19:35;94328.75;;;26.92;54.61
56330;BME280;42236;48.058;10.632;2023-07-29T12:22:43;94333.69;;;26.66;49.53
56330;BME280;42236;48.058;10.632;2023-07-29T12:25:29;94308.56;;;26.16;55.97
56330;BME280;42236;48.058;10.632;2023-07-29T12:28:15;94314.03;;;26.07;56.69
56330;BME280;42236;48.058;10.632;2023-07-29T12:31:01;94311.91;;;25.89;57.12
56330;BME280;42236;48.058;10.632;2023-07-29T12:33:47;94302.38;;;26.12;57.06
56330;BME280;42236;48.058;10.632;2023-07-29T12:36:50;94312.94;;;26.26;55.88
56330;BME280;42236;48.058;10.632;2023-07-29T12:39:40;94331.09;;;26.27;56.09
56330;BME280;42236;48.058;10.632;2023-07-29T12:42:29;94323.41;;;25.74;57.74
56330;BME280;42236;48.058;10.632;2023-07-29T12:45:18;94308.34;;;25.41;57.57
56330;BME280;42236;48.058;10.632;2023-07-29T12:48:04;94317.31;;;24.94;59.02
56330;BME280;42236;48.058;10.632;2023-07-29T12:51:05;94325.41;;;24.46;60.05
56330;BME280;42236;48.058;10.632;2023-07-29T12:53:51;94322.50;;;24.37;60.59
56330;BME280;42236;48.058;10.632;2023-07-29T12:56:37;94319.94;;;24.00;62.62
56330;BME280;42236;48.058;10.632;2023-07-29T12:59:23;94326.78;;;23.79;64.43
56330;BME280;42236;48.058;10.632;2023-07-29T13:02:12;94330.50;;;23.56;65.74
56330;BME280;42236;48.058;10.632;2023-07-29T13:08:12;94342.56;;;23.13;68.12
56330;BME280;42236;48.058;10.632;2023-07-29T13:10:58;94348.66;;;23.21;68.69
56330;BME280;42236;48.058;10.632;2023-07-29T13:13:43;94356.41;;;23.42;68.11
56330;BME280;42236;48.058;10.632;2023-07-29T13:16:31;94347.09;;;23.53;67.85
56330;BME280;42236;48.058;10.632;2023-07-29T13:19:21;94367.59;;;23.52;67.95
56330;BME280;42236;48.058;10.632;2023-07-29T13:25:55;94347.22;;;23.49;68.40
56330;BME280;42236;48.058;10.632;2023-07-29T13:29:03;94357.00;;;23.34;70.50
56330;BME280;42236;48.058;10.632;2023-07-29T13:31:49;94357.25;;;23.23;70.21
56330;BME280;42236;48.058;10.632;2023-07-29T13:34:35;94366.09;;;22.98;70.97
56330;BME280;42236;48.058;10.632;2023-07-29T13:37:33;94365.41;;;22.74;72.38
56330;BME280;42236;48.058;10.632;2023-07-29T13:40:24;94371.31;;;22.12;79.81
56330;BME280;42236;48.058;10.632;2023-07-29T13:43:50;94379.25;;;20.85;89.04
56330;BME280;42236;48.058;10.632;2023-07-29T13:46:36;94379.72;;;19.67;91.23
56330;BME280;42236;48.058;10.632;2023-07-29T13:49:22;94389.56;;;19.08;93.12
56330;BME280;42236;48.058;10.632;2023-07-29T13:52:08;94370.19;;;18.92;94.20
56330;BME280;42236;48.058;10.632;2023-07-29T13:54:54;94368.19;;;18.96;94.23
56330;BME280;42236;48.058;10.632;2023-07-29T13:57:45;94386.47;;;19.06;93.84
56330;BME280;42236;48.058;10.632;2023-07-29T14:07:53;94399.88;;;19.42;92.68
56330;BME280;42236;48.058;10.632;2023-07-29T14:10:42;94396.66;;;19.54;93.41
56330;BME280;42236;48.058;10.632;2023-07-29T14:13:40;94387.94;;;19.67;93.54
56330;BME280;42236;48.058;10.632;2023-07-29T14:16:45;94386.75;;;19.75;93.42
56330;BME280;42236;48.058;10.632;2023-07-29T14:19:37;94398.06;;;19.77;91.77
56330;BME280;42236;48.058;10.632;2023-07-29T14:26:05;94403.22;;;19.64;92.17
56330;BME280;42236;48.058;10.632;2023-07-29T14:29:23;94401.72;;;19.56;94.72
56330;BME280;42236;48.058;10.632;2023-07-29T14:32:09;94424.06;;;19.47;93.58
56330;BME280;42236;48.058;10.632;2023-07-29T14:34:55;94428.88;;;19.32;94.57
56330;BME280;42236;48.058;10.632;2023-07-29T14:37:41;94421.56;;;19.18;96.75
56330;BME280;42236;48.058;10.632;2023-07-29T14:40:31;94411.03;;;19.13;96.73
56330;BME280;42236;48.058;10.632;2023-07-29T14:43:26;94394.66;;;19.10;96.36
56330;BME280;42236;48.058;10.632;2023-07-29T14:49:44;94383.06;;;19.44;96.83
56330;BME280;42236;48.058;10.632;2023-07-29T14:52:48;94385.69;;;19.58;99.54
56330;BME280;42236;48.058;10.632;2023-07-29T14:55:55;94395.78;;;19.68;99.08
56330;BME280;42236;48.058;10.632;2023-07-29T14:59:13;94394.88;;;19.82;99.40
56330;BME280;42236;48.058;10.632;2023-07-29T15:05:13;94402.41;;;20.12;96.80
56330;BME280;42236;48.058;10.632;2023-07-29T15:08:18;94403.00;;;20.27;99.81
56330;BME280;42236;48.058;10.632;2023-07-29T15:11:22;94405.66;;;20.34;97.19
56330;BME280;42236;48.058;10.632;2023-07-29T15:14:30;94414.69;;;20.35;99.23
56330;BME280;42236;48.058;10.632;2023-07-29T15:17:24;94417.47;;;20.31;96.48
56330;BME280;42236;48.058;10.632;2023-07-29T15:20:19;94411.91;;;20.38;95.99
56330;BME280;42236;48.058;10.632;2023-07-29T15:30:04;94418.00;;;20.57;93.72
56330;BME280;42236;48.058;10.632;2023-07-29T15:36:45;94409.63;;;20.67;92.46
56330;BME280;42236;48.058;10.632;2023-07-29T15:39:33;94416.63;;;20.72;92.48
56330;BME280;42236;48.058;10.632;2023-07-29T15:42:50;94418.28;;;20.66;88.80
56330;BME280;42236;48.058;10.632;2023-07-29T15:45:36;94412.00;;;20.65;89.65
56330;BME280;42236;48.058;10.632;2023-07-29T15:48:22;94412.41;;;20.64;88.84
56330;BME280;42236;48.058;10.632;2023-07-29T15:51:08;94405.00;;;20.61;88.11
56330;BME280;42236;48.058;10.632;2023-07-29T15:53:56;94402.38;;;20.50;84.77
56330;BME280;42236;48.058;10.632;2023-07-29T15:56:42;94398.56;;;20.40;84.28
56330;BME280;42236;48.058;10.632;2023-07-29T15:59:29;94399.78;;;20.36;83.97
56330;BME280;42236;48.058;10.632;2023-07-29T16:02:27;94409.25;;;20.31;82.79
56330;BME280;42236;48.058;10.632;2023-07-29T16:05:16;94409.28;;;20.28;82.51
56330;BME280;42236;48.058;10.632;2023-07-29T16:08:11;94420.28;;;20.24;78.55
56330;BME280;42236;48.058;10.632;2023-07-29T16:10:57;94414.72;;;20.31;81.82
56330;BME280;42236;48.058;10.632;2023-07-29T16:13:43;94414.25;;;20.40;81.57
56330;BME280;42236;48.058;10.632;2023-07-29T16:16:57;94423.97;;;20.44;81.50
56330;BME280;42236;48.058;10.632;2023-07-29T16:20:01;94418.53;;;20.41;83.05
56330;BME280;42236;48.058;10.632;2023-07-29T16:22:49;94420.44;;;20.44;82.91
56330;BME280;42236;48.058;10.632;2023-07-29T16:25:35;94419.25;;;20.45;83.15
56330;BME280;42236;48.058;10.632;2023-07-29T16:28:30;94420.41;;;20.48;83.00
56330;BME280;42236;48.058;10.632;2023-07-29T16:31:40;94423.91;;;20.52;83.10
56330;BME280;42236;48.058;10.632;2023-07-29T16:34:26;94419.53;;;20.58;83.40
56330;BME280;42236;48.058;10.632;2023-07-29T16:37:26;94419.91;;;20.60;83.24
56330;BME280;42236;48.058;10.632;2023-07-29T16:40:19;94412.88;;;20.59;82.45
56330;BME280;42236;48.058;10.632;2023-07-29T16:43:28;94415.25;;;20.53;81.81
56330;BME280;42236;48.058;10.632;2023-07-29T16:50:31;94416.13;;;20.46;80.54
56330;BME280;42236;48.058;10.632;2023-07-29T16:53:20;94430.16;;;20.49;81.60
56330;BME280;42236;48.058;10.632;2023-07-29T16:56:06;94426.66;;;20.48;81.32
56330;BME280;42236;48.058;10.632;2023-07-29T16:59:11;94424.00;;;20.41;80.51
56330;BME280;42236;48.058;10.632;2023-07-29T17:01:59;94424.81;;;20.38;80.42
56330;BME280;42236;48.058;10.632;2023-07-29T17:04:57;94420.16;;;20.35;81.41
56330;BME280;42236;48.058;10.632;2023-07-29T17:07:47;94420.25;;;20.28;81.32
56330;BME280;42236;48.058;10.632;2023-07-29T17:10:45;94423.84;;;20.21;80.22
56330;BME280;42236;48.058;10.632;2023-07-29T17:13:37;94428.56;;;20.17;80.57
56330;BME280;42236;48.058;10.632;2023-07-29T17:16:35;94422.38;;;20.13;79.67
56330;BME280;42236;48.058;10.632;2023-07-29T17:19:28;94437.59;;;20.14;80.90
56330;BME280;42236;48.058;10.632;2023-07-29T17:22:26;94444.28;;;20.13;80.58
56330;BME280;42236;48.058;10.632;2023-07-29T17:25:45;94442.31;;;20.10;80.60
56330;BME280;42236;48.058;10.632;2023-07-29T17:28:42;94442.41;;;20.02;81.50
56330;BME280;42236;48.058;10.632;2023-07-29T17:31:38;94441.63;;;20.02;81.28
56330;BME280;42236;48.058;10.632;2023-07-29T17:34:30;94447.88;;;20.02;81.53
56330;BME280;42236;48.058;10.632;2023-07-29T17:41:02;94453.41;;;19.95;82.09
56330;BME280;42236;48.058;10.632;2023-07-29T17:44:02;94452.31;;;19.89;81.54
56330;BME280;42236;48.058;10.632;2023-07-29T17:46:51;94451.16;;;19.87;81.42
56330;BME280;42236;48.058;10.632;2023-07-29T17:49:40;94458.22;;;19.84;81.43
56330;BME280;42236;48.058;10.632;2023-07-29T17:56:11;94454.28;;;19.85;82.39
56330;BME280;42236;48.058;10.632;2023-07-29T17:59:10;94454.69;;;19.83;82.61